sensor_id;sensor_type;location;lat;lon;timestamp;pressure;altitude;pressure_sealevel;temperature;humidity
19890;BME280;10107;51.198;6.824;2023-07-16T00:03:46;-21828.78;;;19.64;100.00
19890;BME280;10107;51.198;6.824;2023-07-16T00:07:47;-21829.16;;;19.65;100.00
19890;BME280;10107;51.198;6.824;2023-07-16T00:11:49;-21830.19;;;19.69;100.00
19890;BME280;10107;51.198;6.824;2023-07-16T00:15:51;-21829.94;;;19.68;100.00
19890;BME280;10107;51.198;6.824;2023-07-16T00:19:54;-21830.47;;;19.70;100.00
19890;BME280;10107;51.198;6.824;2023-07-16T00:23:55;-21830.06;;;19.69;100.00
19890;BME280;10107;51.198;6.824;2023-07-16T00:27:57;-21828.13;;;19.61;100.00
19890;BME280;10107;51.198;6.824;2023-07-16T00:31:59;-21825.50;;;19.51;100.00
19890;BME280;10107;51.198;6.824;2023-07-16T00:36:02;-21823.03;;;19.41;100.00
19890;BME280;10107;51.198;6.824;2023-07-16T00:40:05;-21820.41;;;19.31;100.00
19890;BME280;10107;51.198;6.824;2023-07-16T00:44:08;-21818.06;;;19.22;100.00
19890;BME280;10107;51.198;6.824;2023-07-16T00:48:10;-21815.84;;;19.13;100.00
19890;BME280;10107;51.198;6.824;2023-07-16T00:52:16;-21814.53;;;19.08;100.00
19890;BME280;10107;51.198;6.824;2023-07-16T00:56:20;-21811.66;;;18.96;100.00
19890;BME280;10107;51.198;6.824;2023-07-16T01:00:22;-21809.19;;;18.87;100.00
19890;BME280;10107;51.198;6.824;2023-07-16T01:04:24;-21807.50;;;18.80;100.00
19890;BME280;10107;51.198;6.824;2023-07-16T01:08:31;-21807.63;;;18.80;100.00
19890;BME280;10107;51.198;6.824;2023-07-16T01:12:33;-21807.22;;;18.79;100.00
19890;BME280;10107;51.198;6.824;2023-07-16T01:16:36;-21807.88;;;18.82;100.00
19890;BME280;10107;51.198;6.824;2023-07-16T01:20:37;-21808.41;;;18.84;100.00
19890;BME280;10107;51.198;6.824;2023-07-16T01:24:53;-21810.25;;;18.91;100.00
19890;BME280;10107;51.198;6.824;2023-07-16T01:29:21;-21811.41;;;18.95;100.00
19890;BME280;10107;51.198;6.824;2023-07-16T01:33:29;-21812.59;;;19.00;100.00
19890;BME280;10107;51.198;6.824;2023-07-16T01:37:31;-21812.84;;;19.01;100.00
19890;BME280;10107;51.198;6.824;2023-07-16T01:41:32;-21810.09;;;18.90;100.00
19890;BME280;10107;51.198;6.824;2023-07-16T01:45:35;-21806.72;;;18.77;100.00
19890;BME280;10107;51.198;6.824;2023-07-16T01:49:37;-21804.09;;;18.67;100.00
19890;BME280;10107;51.198;6.824;2023-07-16T01:53:39;-21801.34;;;18.56;100.00
19890;BME280;10107;51.198;6.824;2023-07-16T01:57:41;-21800.31;;;18.52;100.00
19890;BME280;10107;51.198;6.824;2023-07-16T02:01:44;-21798.72;;;18.46;100.00
19890;BME280;10107;51.198;6.824;2023-07-16T02:05:45;-21796.78;;;18.38;100.00
19890;BME280;10107;51.198;6.824;2023-07-16T02:09:47;-21795.84;;;18.34;100.00
19890;BME280;10107;51.198;6.824;2023-07-16T02:13:48;-21794.53;;;18.29;100.00
19890;BME280;10107;51.198;6.824;2023-07-16T02:17:51;-21793.75;;;18.26;100.00
19890;BME280;10107;51.198;6.824;2023-07-16T02:21:53;-21793.09;;;18.24;100.00
19890;BME280;10107;51.198;6.824;2023-07-16T02:25:55;-21791.28;;;18.16;100.00
19890;BME280;10107;51.198;6.824;2023-07-16T02:29:56;-21789.31;;;18.09;100.00
19890;BME280;10107;51.198;6.824;2023-07-16T02:34:00;-21788.00;;;18.04;100.00
19890;BME280;10107;51.198;6.824;2023-07-16T02:38:01;-21786.44;;;17.97;100.00
19890;BME280;10107;51.198;6.824;2023-07-16T02:42:03;-21784.34;;;17.89;100.00
19890;BME280;10107;51.198;6.824;2023-07-16T02:46:05;-21784.09;;;17.88;100.00
19890;BME280;10107;51.198;6.824;2023-07-16T02:50:09;-21782.50;;;17.82;100.00
19890;BME280;10107;51.198;6.824;2023-07-16T02:54:11;-21781.19;;;17.77;100.00
19890;BME280;10107;51.198;6.824;2023-07-16T02:58:13;-21781.47;;;17.78;100.00
19890;BME280;10107;51.198;6.824;2023-07-16T03:02:14;-21780.69;;;17.75;100.00
19890;BME280;10107;51.198;6.824;2023-07-16T03:06:18;-21779.91;;;17.72;100.00
19890;BME280;10107;51.198;6.824;2023-07-16T03:10:20;-21779.50;;;17.70;100.00
19890;BME280;10107;51.198;6.824;2023-07-16T03:14:22;-21778.59;;;17.67;100.00
19890;BME280;10107;51.198;6.824;2023-07-16T03:18:28;-21778.72;;;17.67;100.00
19890;BME280;10107;51.198;6.824;2023-07-16T03:22:31;-21778.97;;;17.68;100.00
19890;BME280;10107;51.198;6.824;2023-07-16T03:26:32;-21779.09;;;17.69;100.00
19890;BME280;10107;51.198;6.824;2023-07-16T03:30:34;-21779.09;;;17.69;100.00
19890;BME280;10107;51.198;6.824;2023-07-16T03:34:37;-21778.19;;;17.65;100.00
19890;BME280;10107;51.198;6.824;2023-07-16T03:38:40;-21777.53;;;17.62;100.00
19890;BME280;10107;51.198;6.824;2023-07-16T03:42:42;-21777.00;;;17.60;100.00
19890;BME280;10107;51.198;6.824;2023-07-16T03:46:44;-21776.75;;;17.59;100.00
19890;BME280;10107;51.198;6.824;2023-07-16T03:50:46;-21777.53;;;17.62;100.00
19890;BME280;10107;51.198;6.824;2023-07-16T03:54:49;-21776.63;;;17.59;100.00
19890;BME280;10107;51.198;6.824;2023-07-16T03:58:51;-21775.97;;;17.56;100.00
19890;BME280;10107;51.198;6.824;2023-07-16T04:02:52;-21775.97;;;17.56;100.00
19890;BME280;10107;51.198;6.824;2023-07-16T04:06:54;-21776.75;;;17.59;100.00
19890;BME280;10107;51.198;6.824;2023-07-16T04:10:58;-21776.75;;;17.59;100.00
19890;BME280;10107;51.198;6.824;2023-07-16T04:14:59;-21778.31;;;17.66;100.00
19890;BME280;10107;51.198;6.824;2023-07-16T04:19:01;-21779.09;;;17.69;99.50
19890;BME280;10107;51.198;6.824;2023-07-16T04:23:03;-21779.09;;;17.69;99.37
19890;BME280;10107;51.198;6.824;2023-07-16T04:27:06;-21780.53;;;17.74;98.36
19890;BME280;10107;51.198;6.824;2023-07-16T04:31:08;-21782.25;;;17.81;96.73
19890;BME280;10107;51.198;6.824;2023-07-16T04:35:09;-21784.09;;;17.88;95.99
19890;BME280;10107;51.198;6.824;2023-07-16T04:39:11;-21786.31;;;17.97;94.45
19890;BME280;10107;51.198;6.824;2023-07-16T04:43:14;-21789.31;;;18.09;93.80
19890;BME280;10107;51.198;6.824;2023-07-16T04:47:16;-21792.59;;;18.21;93.40
19890;BME280;10107;51.198;6.824;2023-07-16T04:51:18;-21795.59;;;18.33;91.98
19890;BME280;10107;51.198;6.824;2023-07-16T04:55:19;-21796.78;;;18.38;91.55
19890;BME280;10107;51.198;6.824;2023-07-16T04:59:22;-21798.06;;;18.43;91.23
19890;BME280;10107;51.198;6.824;2023-07-16T05:03:24;-21802.41;;;18.60;89.76
19890;BME280;10107;51.198;6.824;2023-07-16T05:07:25;-21808.28;;;18.83;88.24
19890;BME280;10107;51.198;6.824;2023-07-16T05:11:27;-21816.38;;;19.15;85.17
19890;BME280;10107;51.198;6.824;2023-07-16T05:15:31;-21831.13;;;19.73;83.19
19890;BME280;10107;51.198;6.824;2023-07-16T05:19:33;-21852.25;;;20.56;78.55
19890;BME280;10107;51.198;6.824;2023-07-16T05:23:35;-21867.06;;;21.14;74.79
19890;BME280;10107;51.198;6.824;2023-07-16T05:27:36;-21879.19;;;21.62;71.31
19890;BME280;10107;51.198;6.824;2023-07-16T05:31:39;-21903.06;;;22.57;67.48
19890;BME280;10107;51.198;6.824;2023-07-16T05:35:41;-21914.34;;;23.01;64.93
19890;BME280;10107;51.198;6.824;2023-07-16T05:39:42;-21929.25;;;23.60;62.87
19890;BME280;10107;51.198;6.824;2023-07-16T05:43:44;-21937.81;;;23.94;59.54
19890;BME280;10107;51.198;6.824;2023-07-16T05:47:47;-21942.22;;;24.11;59.50
19890;BME280;10107;51.198;6.824;2023-07-16T05:51:49;-21952.94;;;24.54;57.19
19890;BME280;10107;51.198;6.824;2023-07-16T05:55:50;-21958.13;;;24.75;55.47
19890;BME280;10107;51.198;6.824;2023-07-16T05:59:52;-21962.75;;;24.93;54.70
19890;BME280;10107;51.198;6.824;2023-07-16T06:03:55;-21970.66;;;25.24;52.32
19890;BME280;10107;51.198;6.824;2023-07-16T06:07:57;-21985.88;;;25.85;51.78
19890;BME280;10107;51.198;6.824;2023-07-16T06:11:58;-22004.94;;;26.61;48.17
19890;BME280;10107;51.198;6.824;2023-07-16T06:16:00;-22029.13;;;27.57;45.96
19890;BME280;10107;51.198;6.824;2023-07-16T06:20:03;-22028.75;;;27.56;44.78
19890;BME280;10107;51.198;6.824;2023-07-16T06:24:06;-22048.91;;;28.36;43.83
19890;BME280;10107;51.198;6.824;2023-07-16T06:28:07;-22055.19;;;28.61;41.26
19890;BME280;10107;51.198;6.824;2023-07-16T06:32:09;-22064.81;;;29.00;39.33
19890;BME280;10107;51.198;6.824;2023-07-16T06:36:12;-22090.41;;;30.03;37.68
19890;BME280;10107;51.198;6.824;2023-07-16T06:40:15;-22101.91;;;30.49;36.45
19890;BME280;10107;51.198;6.824;2023-07-16T06:44:17;-22099.22;;;30.38;35.80
19890;BME280;10107;51.198;6.824;2023-07-16T06:48:18;-22112.66;;;30.92;34.83
19890;BME280;10107;51.198;6.824;2023-07-16T06:52:22;-22086.97;;;29.89;35.59
19890;BME280;10107;51.198;6.824;2023-07-16T06:56:24;-22130.25;;;31.63;33.59
19890;BME280;10107;51.198;6.824;2023-07-16T07:00:27;-22164.22;;;33.00;30.19
19890;BME280;10107;51.198;6.824;2023-07-16T07:04:28;-22183.78;;;33.79;29.56
19890;BME280;10107;51.198;6.824;2023-07-16T07:08:31;-22209.50;;;34.83;27.38
19890;BME280;10107;51.198;6.824;2023-07-16T07:12:33;-22203.81;;;34.60;26.94
19890;BME280;10107;51.198;6.824;2023-07-16T07:16:37;-22225.69;;;35.48;25.85
19890;BME280;10107;51.198;6.824;2023-07-16T07:20:40;-22256.00;;;36.72;24.54
19890;BME280;10107;51.198;6.824;2023-07-16T07:24:43;-22259.28;;;36.85;23.97
19890;BME280;10107;51.198;6.824;2023-07-16T07:28:44;-22231.63;;;35.73;25.19
19890;BME280;10107;51.198;6.824;2023-07-16T07:32:46;-22229.50;;;35.64;24.79
19890;BME280;10107;51.198;6.824;2023-07-16T07:36:48;-22234.69;;;35.85;24.48
19890;BME280;10107;51.198;6.824;2023-07-16T07:40:51;-22247.41;;;36.37;24.11
19890;BME280;10107;51.198;6.824;2023-07-16T07:44:53;-22242.38;;;36.16;24.33
19890;BME280;10107;51.198;6.824;2023-07-16T07:48:55;-22246.28;;;36.32;24.28
19890;BME280;10107;51.198;6.824;2023-07-16T07:52:56;-22268.72;;;37.23;23.01
19890;BME280;10107;51.198;6.824;2023-07-16T07:57:02;-22291.63;;;38.17;22.65
19890;BME280;10107;51.198;6.824;2023-07-16T08:01:05;-22310.56;;;38.94;21.15
19890;BME280;10107;51.198;6.824;2023-07-16T08:05:07;-22318.72;;;39.28;20.94
19890;BME280;10107;51.198;6.824;2023-07-16T08:09:09;-22309.06;;;38.88;21.23
19890;BME280;10107;51.198;6.824;2023-07-16T08:13:12;-22247.16;;;36.36;23.22
19890;BME280;10107;51.198;6.824;2023-07-16T08:17:14;-22214.06;;;35.01;24.99
19890;BME280;10107;51.198;6.824;2023-07-16T08:26:38;-22169.81;;;33.22;27.10
19890;BME280;10107;51.198;6.824;2023-07-16T08:30:41;-22195.06;;;34.24;25.93
19890;BME280;10107;51.198;6.824;2023-07-16T08:34:42;-22162.81;;;32.94;27.14
19890;BME280;10107;51.198;6.824;2023-07-16T08:38:44;-22180.63;;;33.66;26.42
19890;BME280;10107;51.198;6.824;2023-07-16T08:42:45;-22190.88;;;34.07;26.10
19890;BME280;10107;51.198;6.824;2023-07-16T08:46:49;-22155.59;;;32.65;28.06
19890;BME280;10107;51.198;6.824;2023-07-16T08:50:51;-22161.44;;;32.88;27.78
19890;BME280;10107;51.198;6.824;2023-07-16T08:54:53;-22189.63;;;34.02;25.83
19890;BME280;10107;51.198;6.824;2023-07-16T08:58:55;-22178.06;;;33.56;26.83
19890;BME280;10107;51.198;6.824;2023-07-16T09:02:58;-22146.28;;;32.27;27.99
19890;BME280;10107;51.198;6.824;2023-07-16T09:07:01;-22100.00;;;30.41;31.41
19890;BME280;10107;51.198;6.824;2023-07-16T09:11:02;-22117.50;;;31.11;30.43
19890;BME280;10107;51.198;6.824;2023-07-16T09:15:05;-22108.03;;;30.73;30.30
19890;BME280;10107;51.198;6.824;2023-07-16T09:19:09;-22113.03;;;30.93;30.55
19890;BME280;10107;51.198;6.824;2023-07-16T09:23:16;-22140.31;;;32.03;29.50
19890;BME280;10107;51.198;6.824;2023-07-16T09:27:19;-22181.13;;;33.68;27.39
19890;BME280;10107;51.198;6.824;2023-07-16T09:31:21;-22132.91;;;31.73;28.51
19890;BME280;10107;51.198;6.824;2023-07-16T09:35:25;-22074.78;;;29.40;32.12
19890;BME280;10107;51.198;6.824;2023-07-16T09:39:27;-22040.03;;;28.01;35.14
19890;BME280;10107;51.198;6.824;2023-07-16T09:43:29;-22020.78;;;27.24;36.99
19890;BME280;10107;51.198;6.824;2023-07-16T09:47:31;-22054.69;;;28.59;34.73
19890;BME280;10107;51.198;6.824;2023-07-16T09:51:35;-22033.38;;;27.74;35.94
19890;BME280;10107;51.198;6.824;2023-07-16T09:55:37;-22053.41;;;28.54;35.68
19890;BME280;10107;51.198;6.824;2023-07-16T09:59:39;-22069.28;;;29.18;33.74
19890;BME280;10107;51.198;6.824;2023-07-16T10:03:48;-22096.81;;;30.28;31.78
19890;BME280;10107;51.198;6.824;2023-07-16T10:07:53;-22134.97;;;31.82;29.54
19890;BME280;10107;51.198;6.824;2023-07-16T10:11:54;-22108.31;;;30.74;30.85
19890;BME280;10107;51.198;6.824;2023-07-16T10:15:58;-22151.00;;;32.46;29.61
19890;BME280;10107;51.198;6.824;2023-07-16T10:20:03;-22119.78;;;31.21;29.80
19890;BME280;10107;51.198;6.824;2023-07-16T10:24:16;-22083.38;;;29.74;33.02
19890;BME280;10107;51.198;6.824;2023-07-16T10:28:18;-22133.94;;;31.77;30.08
19890;BME280;10107;51.198;6.824;2023-07-16T10:32:20;-22112.78;;;30.92;31.07
19890;BME280;10107;51.198;6.824;2023-07-16T10:36:22;-22057.25;;;28.70;33.36
19890;BME280;10107;51.198;6.824;2023-07-16T10:40:25;-22031.44;;;27.67;34.83
19890;BME280;10107;51.198;6.824;2023-07-16T10:44:27;-22019.22;;;27.18;36.19
19890;BME280;10107;51.198;6.824;2023-07-16T10:48:29;-22015.88;;;27.04;36.93
19890;BME280;10107;51.198;6.824;2023-07-16T10:52:31;-22025.16;;;27.41;36.93
19890;BME280;10107;51.198;6.824;2023-07-16T10:56:35;-22028.47;;;27.55;36.32
19890;BME280;10107;51.198;6.824;2023-07-16T11:00:39;-22066.34;;;29.06;33.23
19890;BME280;10107;51.198;6.824;2023-07-16T11:04:41;-22101.53;;;30.47;31.28
19890;BME280;10107;51.198;6.824;2023-07-16T11:08:42;-22081.19;;;29.66;31.86
19890;BME280;10107;51.198;6.824;2023-07-16T11:12:50;-22070.19;;;29.21;32.75
19890;BME280;10107;51.198;6.824;2023-07-16T11:16:53;-22054.81;;;28.60;33.63
19890;BME280;10107;51.198;6.824;2023-07-16T11:20:54;-22048.25;;;28.34;33.89
19890;BME280;10107;51.198;6.824;2023-07-16T11:24:56;-22052.09;;;28.49;34.73
19890;BME280;10107;51.198;6.824;2023-07-16T11:28:59;-22068.41;;;29.14;33.23
19890;BME280;10107;51.198;6.824;2023-07-16T11:33:01;-22061.59;;;28.87;32.99
19890;BME280;10107;51.198;6.824;2023-07-16T11:37:10;-22039.78;;;28.00;34.33
19890;BME280;10107;51.198;6.824;2023-07-16T11:41:12;-22017.28;;;27.10;36.20
19890;BME280;10107;51.198;6.824;2023-07-16T11:45:20;-22017.03;;;27.09;36.62
19890;BME280;10107;51.198;6.824;2023-07-16T11:49:23;-22020.63;;;27.23;37.08
19890;BME280;10107;51.198;6.824;2023-07-16T11:53:25;-22030.53;;;27.63;35.68
19890;BME280;10107;51.198;6.824;2023-07-16T11:57:27;-22023.72;;;27.36;36.33
19890;BME280;10107;51.198;6.824;2023-07-16T12:01:30;-22014.06;;;26.97;37.05
19890;BME280;10107;51.198;6.824;2023-07-16T12:05:32;-22011.75;;;26.88;37.66
19890;BME280;10107;51.198;6.824;2023-07-16T12:09:33;-22034.53;;;27.79;36.06
19890;BME280;10107;51.198;6.824;2023-07-16T12:13:35;-22039.03;;;27.97;35.51
19890;BME280;10107;51.198;6.824;2023-07-16T12:17:40;-22025.00;;;27.41;35.94
19890;BME280;10107;51.198;6.824;2023-07-16T12:21:41;-22018.59;;;27.15;37.86
19890;BME280;10107;51.198;6.824;2023-07-16T12:25:43;-22013.06;;;26.93;37.37
19890;BME280;10107;51.198;6.824;2023-07-16T12:29:45;-22006.75;;;26.68;38.28
19890;BME280;10107;51.198;6.824;2023-07-16T12:33:48;-22032.47;;;27.71;36.95
19890;BME280;10107;51.198;6.824;2023-07-16T12:37:49;-22048.25;;;28.34;35.65
19890;BME280;10107;51.198;6.824;2023-07-16T12:41:51;-22054.81;;;28.60;35.27
19890;BME280;10107;51.198;6.824;2023-07-16T12:45:53;-22064.81;;;29.00;33.62
19890;BME280;10107;51.198;6.824;2023-07-16T12:49:56;-22089.00;;;29.97;32.45
19890;BME280;10107;51.198;6.824;2023-07-16T12:53:57;-22067.63;;;29.11;32.02
19890;BME280;10107;51.198;6.824;2023-07-16T12:58:01;-22051.72;;;28.48;33.40
19890;BME280;10107;51.198;6.824;2023-07-16T13:02:03;-22040.31;;;28.02;34.94
19890;BME280;10107;51.198;6.824;2023-07-16T13:06:06;-22069.69;;;29.19;34.69
19890;BME280;10107;51.198;6.824;2023-07-16T13:10:09;-22103.69;;;30.56;30.80
19890;BME280;10107;51.198;6.824;2023-07-16T13:14:11;-22083.63;;;29.75;32.03
19890;BME280;10107;51.198;6.824;2023-07-16T13:18:12;-22077.09;;;29.49;32.04
19890;BME280;10107;51.198;6.824;2023-07-16T13:22:15;-22068.53;;;29.15;32.66
19890;BME280;10107;51.198;6.824;2023-07-16T13:26:17;-22063.41;;;28.94;33.91
19890;BME280;10107;51.198;6.824;2023-07-16T13:30:19;-22072.75;;;29.32;33.08
19890;BME280;10107;51.198;6.824;2023-07-16T13:34:20;-22064.03;;;28.97;33.13
19890;BME280;10107;51.198;6.824;2023-07-16T13:38:23;-22067.88;;;29.12;33.06
19890;BME280;10107;51.198;6.824;2023-07-16T13:42:25;-22072.63;;;29.31;31.99
19890;BME280;10107;51.198;6.824;2023-07-16T13:46:26;-22068.53;;;29.15;32.87
19890;BME280;10107;51.198;6.824;2023-07-16T13:50:28;-22066.47;;;29.07;33.28
19890;BME280;10107;51.198;6.824;2023-07-16T13:54:31;-22050.69;;;28.43;33.54
19890;BME280;10107;51.198;6.824;2023-07-16T13:58:33;-22032.97;;;27.73;34.82
19890;BME280;10107;51.198;6.824;2023-07-16T14:02:35;-22025.78;;;27.44;35.55
19890;BME280;10107;51.198;6.824;2023-07-16T14:06:37;-22023.59;;;27.35;36.00
19890;BME280;10107;51.198;6.824;2023-07-16T14:10:40;-22031.81;;;27.68;35.99
19890;BME280;10107;51.198;6.824;2023-07-16T14:14:41;-22033.88;;;27.76;35.57
19890;BME280;10107;51.198;6.824;2023-07-16T14:18:44;-22028.47;;;27.55;35.39
19890;BME280;10107;51.198;6.824;2023-07-16T14:22:45;-22040.81;;;28.04;34.93
19890;BME280;10107;51.198;6.824;2023-07-16T14:26:48;-22041.34;;;28.06;34.52
19890;BME280;10107;51.198;6.824;2023-07-16T14:30:50;-22040.69;;;28.03;34.92
19890;BME280;10107;51.198;6.824;2023-07-16T14:34:52;-22053.66;;;28.55;35.00
19890;BME280;10107;51.198;6.824;2023-07-16T14:38:53;-22058.28;;;28.74;34.52
19890;BME280;10107;51.198;6.824;2023-07-16T14:42:56;-22050.44;;;28.42;34.71
19890;BME280;10107;51.198;6.824;2023-07-16T14:46:58;-22040.94;;;28.04;35.06
19890;BME280;10107;51.198;6.824;2023-07-16T14:51:00;-22030.03;;;27.61;35.54
19890;BME280;10107;51.198;6.824;2023-07-16T14:55:04;-22017.69;;;27.12;36.60
19890;BME280;10107;51.198;6.824;2023-07-16T14:59:07;-22012.78;;;26.92;37.27
19890;BME280;10107;51.198;6.824;2023-07-16T15:03:09;-22023.59;;;27.35;37.34
19890;BME280;10107;51.198;6.824;2023-07-16T15:07:11;-22026.94;;;27.49;36.98
19890;BME280;10107;51.198;6.824;2023-07-16T15:11:12;-22024.75;;;27.40;36.21
19890;BME280;10107;51.198;6.824;2023-07-16T15:15:16;-22018.19;;;27.14;36.57
19890;BME280;10107;51.198;6.824;2023-07-16T15:19:17;-22017.03;;;27.09;36.78
19890;BME280;10107;51.198;6.824;2023-07-16T15:23:20;-22018.44;;;27.15;37.17
19890;BME280;10107;51.198;6.824;2023-07-16T15:27:22;-22022.44;;;27.31;36.48
19890;BME280;10107;51.198;6.824;2023-07-16T15:31:26;-22026.03;;;27.45;36.54
19890;BME280;10107;51.198;6.824;2023-07-16T15:35:28;-22021.81;;;27.28;36.60
19890;BME280;10107;51.198;6.824;2023-07-16T15:39:30;-22014.22;;;26.98;37.12
19890;BME280;10107;51.198;6.824;2023-07-16T15:43:32;-22013.81;;;26.96;37.80
19890;BME280;10107;51.198;6.824;2023-07-16T15:47:35;-22011.00;;;26.85;38.09
19890;BME280;10107;51.198;6.824;2023-07-16T15:51:36;-22008.41;;;26.75;38.32
19890;BME280;10107;51.198;6.824;2023-07-16T15:55:41;-22013.69;;;26.96;38.37
19890;BME280;10107;51.198;6.824;2023-07-16T15:59:42;-22007.00;;;26.69;38.39
19890;BME280;10107;51.198;6.824;2023-07-16T16:03:46;-22005.06;;;26.61;38.79
19890;BME280;10107;51.198;6.824;2023-07-16T16:08:10;-22017.94;;;27.13;37.85
19890;BME280;10107;51.198;6.824;2023-07-16T16:12:12;-22020.25;;;27.22;37.99
19890;BME280;10107;51.198;6.824;2023-07-16T16:16:13;-22024.38;;;27.38;38.49
19890;BME280;10107;51.198;6.824;2023-07-16T16:20:18;-22022.81;;;27.32;38.41
19890;BME280;10107;51.198;6.824;2023-07-16T16:24:19;-22019.88;;;27.20;37.92
19890;BME280;10107;51.198;6.824;2023-07-16T16:28:21;-22013.69;;;26.96;38.88
19890;BME280;10107;51.198;6.824;2023-07-16T16:32:23;-22017.16;;;27.10;38.25
19890;BME280;10107;51.198;6.824;2023-07-16T16:36:26;-22014.47;;;26.99;38.83
19890;BME280;10107;51.198;6.824;2023-07-16T16:40:28;-22014.59;;;26.99;38.55
19890;BME280;10107;51.198;6.824;2023-07-16T16:44:30;-22021.16;;;27.25;38.48
19890;BME280;10107;51.198;6.824;2023-07-16T16:48:31;-22027.06;;;27.49;38.00
19890;BME280;10107;51.198;6.824;2023-07-16T16:52:37;-22016.25;;;27.06;37.84
19890;BME280;10107;51.198;6.824;2023-07-16T16:56:39;-22004.56;;;26.59;38.61
19890;BME280;10107;51.198;6.824;2023-07-16T17:00:41;-21999.91;;;26.41;39.44
19890;BME280;10107;51.198;6.824;2023-07-16T17:04:42;-21997.22;;;26.30;39.17
19890;BME280;10107;51.198;6.824;2023-07-16T17:08:46;-21989.34;;;25.99;39.16
19890;BME280;10107;51.198;6.824;2023-07-16T17:12:47;-21986.91;;;25.89;38.52
19890;BME280;10107;51.198;6.824;2023-07-16T17:16:49;-21983.03;;;25.74;38.85
19890;BME280;10107;51.198;6.824;2023-07-16T17:20:51;-21982.78;;;25.73;39.49
19890;BME280;10107;51.198;6.824;2023-07-16T17:24:55;-21975.69;;;25.44;38.48
19890;BME280;10107;51.198;6.824;2023-07-16T17:28:57;-21972.84;;;25.33;39.31
19890;BME280;10107;51.198;6.824;2023-07-16T17:32:58;-21972.44;;;25.32;39.94
19890;BME280;10107;51.198;6.824;2023-07-16T17:37:00;-21970.25;;;25.23;39.97
19890;BME280;10107;51.198;6.824;2023-07-16T17:41:03;-21967.03;;;25.10;40.00
19890;BME280;10107;51.198;6.824;2023-07-16T17:45:06;-21963.78;;;24.97;40.92
19890;BME280;10107;51.198;6.824;2023-07-16T17:49:08;-21960.19;;;24.83;41.52
19890;BME280;10107;51.198;6.824;2023-07-16T17:53:10;-21957.84;;;24.74;41.77
19890;BME280;10107;51.198;6.824;2023-07-16T17:57:13;-21956.56;;;24.68;42.05
19890;BME280;10107;51.198;6.824;2023-07-16T18:01:15;-21953.34;;;24.56;42.02
19890;BME280;10107;51.198;6.824;2023-07-16T18:05:16;-21951.78;;;24.49;42.16
19890;BME280;10107;51.198;6.824;2023-07-16T18:09:18;-21949.84;;;24.42;42.65
19890;BME280;10107;51.198;6.824;2023-07-16T18:13:22;-21946.47;;;24.28;43.15
19890;BME280;10107;51.198;6.824;2023-07-16T18:17:25;-21943.75;;;24.18;43.37
19890;BME280;10107;51.198;6.824;2023-07-16T18:21:27;-21941.94;;;24.10;43.16
19890;BME280;10107;51.198;6.824;2023-07-16T18:25:30;-21940.25;;;24.04;43.78
19890;BME280;10107;51.198;6.824;2023-07-16T18:29:33;-21937.16;;;23.91;44.09
19890;BME280;10107;51.198;6.824;2023-07-16T18:33:34;-21935.59;;;23.85;44.70
19890;BME280;10107;51.198;6.824;2023-07-16T18:37:36;-21934.56;;;23.81;44.53
19890;BME280;10107;51.198;6.824;2023-07-16T18:41:38;-21934.31;;;23.80;44.36
19890;BME280;10107;51.198;6.824;2023-07-16T18:45:42;-21933.78;;;23.78;44.49
19890;BME280;10107;51.198;6.824;2023-07-16T18:49:43;-21932.38;;;23.72;44.68
19890;BME280;10107;51.198;6.824;2023-07-16T18:53:45;-21930.44;;;23.65;45.50
19890;BME280;10107;51.198;6.824;2023-07-16T18:57:47;-21927.56;;;23.53;45.81
19890;BME280;10107;51.198;6.824;2023-07-16T19:01:50;-21925.00;;;23.43;46.15
19890;BME280;10107;51.198;6.824;2023-07-16T19:05:51;-21922.00;;;23.31;46.50
19890;BME280;10107;51.198;6.824;2023-07-16T19:09:53;-21920.06;;;23.24;46.81
19890;BME280;10107;51.198;6.824;2023-07-16T19:13:55;-21919.03;;;23.20;47.29
19890;BME280;10107;51.198;6.824;2023-07-16T19:17:59;-21918.38;;;23.17;47.61
19890;BME280;10107;51.198;6.824;2023-07-16T19:22:01;-21916.44;;;23.09;47.89
19890;BME280;10107;51.198;6.824;2023-07-16T19:26:03;-21915.00;;;23.04;48.29
19890;BME280;10107;51.198;6.824;2023-07-16T19:30:06;-21913.44;;;22.98;48.92
19890;BME280;10107;51.198;6.824;2023-07-16T19:34:09;-21910.84;;;22.87;49.16
19890;BME280;10107;51.198;6.824;2023-07-16T19:38:11;-21909.16;;;22.81;49.74
19890;BME280;10107;51.198;6.824;2023-07-16T19:42:13;-21907.22;;;22.73;51.48
19890;BME280;10107;51.198;6.824;2023-07-16T19:46:14;-21903.72;;;22.59;54.11
19890;BME280;10107;51.198;6.824;2023-07-16T19:50:17;-21899.19;;;22.41;55.79
19890;BME280;10107;51.198;6.824;2023-07-16T19:54:20;-21895.94;;;22.28;55.28
19890;BME280;10107;51.198;6.824;2023-07-16T19:58:22;-21892.44;;;22.14;54.26
19890;BME280;10107;51.198;6.824;2023-07-16T20:02:24;-21889.69;;;22.04;53.67
19890;BME280;10107;51.198;6.824;2023-07-16T20:06:28;-21887.34;;;21.94;53.33
19890;BME280;10107;51.198;6.824;2023-07-16T20:10:31;-21884.75;;;21.84;54.50
19890;BME280;10107;51.198;6.824;2023-07-16T20:14:32;-21881.91;;;21.73;53.63
19890;BME280;10107;51.198;6.824;2023-07-16T20:18:34;-21879.81;;;21.65;54.25
19890;BME280;10107;51.198;6.824;2023-07-16T20:22:37;-21878.00;;;21.58;54.59
19890;BME280;10107;51.198;6.824;2023-07-16T20:26:39;-21876.72;;;21.52;55.03
19890;BME280;10107;51.198;6.824;2023-07-16T20:30:41;-21874.75;;;21.45;55.08
19890;BME280;10107;51.198;6.824;2023-07-16T20:34:43;-21872.28;;;21.35;55.80
19890;BME280;10107;51.198;6.824;2023-07-16T20:38:46;-21870.97;;;21.30;55.90
19890;BME280;10107;51.198;6.824;2023-07-16T20:42:47;-21869.41;;;21.24;56.61
19890;BME280;10107;51.198;6.824;2023-07-16T20:46:49;-21868.00;;;21.18;56.89
19890;BME280;10107;51.198;6.824;2023-07-16T20:50:51;-21867.22;;;21.15;57.39
19890;BME280;10107;51.198;6.824;2023-07-16T20:54:56;-21866.03;;;21.10;57.89
19890;BME280;10107;51.198;6.824;2023-07-16T20:58:57;-21864.22;;;21.03;58.93
19890;BME280;10107;51.198;6.824;2023-07-16T21:03:01;-21862.41;;;20.96;60.71
19890;BME280;10107;51.198;6.824;2023-07-16T21:07:05;-21861.34;;;20.92;62.22
19890;BME280;10107;51.198;6.824;2023-07-16T21:11:09;-21861.47;;;20.92;63.92